X  Close Metar Aviation Weather Data     KPNS Pensacola International Airport
Temperature
81°F Temperature
73°F Dewpoint
79% Humidity



Wind
5 MPH
8 KM/H
2 M/S
4 KTS



250°
WSW
Current Conditions

Clear Clear
Pressure 1021.33 (hPa) - 30.16 (inHg)
Visibility 10 (mile) - 16.1 (km)
Airport
Airport-code KPNS

Location: Pensacola International Airport
Distance: 9 (mi)

Metar:
KPNS 140353Z AUTO 25004KT 10SM CLR 27/23 A3016 RMK AO2 SLP213 T02720233

Time: 14-07-2024 03:53 CDT